sensor_id;sensor_type;location;lat;lon;timestamp;P1;durP1;ratioP1;P2;durP2;ratioP2
64651;SDS011;51062;45.120;37.660;2023-10-19T00:00:33;5.47;;;3.72;;
64651;SDS011;51062;45.120;37.660;2023-10-19T00:02:59;8.30;;;5.30;;
64651;SDS011;51062;45.120;37.660;2023-10-19T00:05:31;7.25;;;5.72;;
64651;SDS011;51062;45.120;37.660;2023-10-19T00:08:01;7.95;;;5.72;;
64651;SDS011;51062;45.120;37.660;2023-10-19T00:10:31;7.05;;;6.40;;
64651;SDS011;51062;45.120;37.660;2023-10-19T00:13:00;7.60;;;4.70;;
64651;SDS011;51062;45.120;37.660;2023-10-19T00:15:33;13.05;;;7.53;;
64651;SDS011;51062;45.120;37.660;2023-10-19T00:18:00;13.07;;;10.07;;
64651;SDS011;51062;45.120;37.660;2023-10-19T00:20:46;7.78;;;6.32;;
64651;SDS011;51062;45.120;37.660;2023-10-19T00:26:00;10.10;;;7.03;;
64651;SDS011;51062;45.120;37.660;2023-10-19T00:28:31;9.27;;;5.90;;
64651;SDS011;51062;45.120;37.660;2023-10-19T00:31:00;19.05;;;7.32;;
64651;SDS011;51062;45.120;37.660;2023-10-19T00:33:33;6.85;;;4.68;;
64651;SDS011;51062;45.120;37.660;2023-10-19T00:36:00;9.38;;;4.90;;
64651;SDS011;51062;45.120;37.660;2023-10-19T00:38:33;7.63;;;4.40;;
64651;SDS011;51062;45.120;37.660;2023-10-19T00:41:03;5.63;;;3.70;;
64651;SDS011;51062;45.120;37.660;2023-10-19T00:46:28;5.30;;;3.63;;
64651;SDS011;51062;45.120;37.660;2023-10-19T00:48:59;6.90;;;6.18;;
64651;SDS011;51062;45.120;37.660;2023-10-19T00:54:16;8.15;;;6.97;;
64651;SDS011;51062;45.120;37.660;2023-10-19T00:57:05;6.90;;;6.20;;
64651;SDS011;51062;45.120;37.660;2023-10-19T00:59:39;7.20;;;5.75;;
64651;SDS011;51062;45.120;37.660;2023-10-19T01:02:19;7.55;;;6.78;;
64651;SDS011;51062;45.120;37.660;2023-10-19T01:04:52;7.32;;;6.43;;
64651;SDS011;51062;45.120;37.660;2023-10-19T01:07:38;7.43;;;6.68;;
64651;SDS011;51062;45.120;37.660;2023-10-19T01:18:48;7.93;;;5.32;;
64651;SDS011;51062;45.120;37.660;2023-10-19T01:21:13;10.10;;;5.38;;
64651;SDS011;51062;45.120;37.660;2023-10-19T01:23:45;10.68;;;5.28;;
64651;SDS011;51062;45.120;37.660;2023-10-19T01:26:11;7.07;;;6.30;;
64651;SDS011;51062;45.120;37.660;2023-10-19T01:28:43;12.32;;;4.68;;
64651;SDS011;51062;45.120;37.660;2023-10-19T01:31:16;6.00;;;5.30;;
64651;SDS011;51062;45.120;37.660;2023-10-19T01:34:01;5.95;;;4.13;;
64651;SDS011;51062;45.120;37.660;2023-10-19T01:36:30;6.10;;;4.30;;
64651;SDS011;51062;45.120;37.660;2023-10-19T01:39:01;8.75;;;5.45;;
64651;SDS011;51062;45.120;37.660;2023-10-19T01:41:28;4.38;;;3.80;;
64651;SDS011;51062;45.120;37.660;2023-10-19T01:43:58;4.05;;;3.67;;
64651;SDS011;51062;45.120;37.660;2023-10-19T01:46:30;8.50;;;6.75;;
64651;SDS011;51062;45.120;37.660;2023-10-19T01:49:02;16.40;;;7.13;;
64651;SDS011;51062;45.120;37.660;2023-10-19T01:51:33;11.07;;;7.72;;
64651;SDS011;51062;45.120;37.660;2023-10-19T01:54:03;5.32;;;4.70;;
64651;SDS011;51062;45.120;37.660;2023-10-19T01:56:30;9.05;;;5.78;;
64651;SDS011;51062;45.120;37.660;2023-10-19T01:58:56;5.38;;;4.80;;
64651;SDS011;51062;45.120;37.660;2023-10-19T02:01:23;5.47;;;4.32;;
64651;SDS011;51062;45.120;37.660;2023-10-19T02:03:51;7.80;;;4.03;;
64651;SDS011;51062;45.120;37.660;2023-10-19T02:06:20;10.93;;;5.63;;
64651;SDS011;51062;45.120;37.660;2023-10-19T02:14:51;4.85;;;3.92;;
64651;SDS011;51062;45.120;37.660;2023-10-19T02:17:18;9.45;;;5.78;;
64651;SDS011;51062;45.120;37.660;2023-10-19T02:22:43;7.00;;;4.35;;
64651;SDS011;51062;45.120;37.660;2023-10-19T02:25:08;4.45;;;3.67;;
64651;SDS011;51062;45.120;37.660;2023-10-19T02:33:07;6.30;;;5.40;;
64651;SDS011;51062;45.120;37.660;2023-10-19T02:35:34;4.03;;;3.63;;
64651;SDS011;51062;45.120;37.660;2023-10-19T02:38:03;12.07;;;5.97;;
64651;SDS011;51062;45.120;37.660;2023-10-19T02:40:29;5.88;;;5.32;;
64651;SDS011;51062;45.120;37.660;2023-10-19T02:42:59;4.63;;;3.97;;
64651;SDS011;51062;45.120;37.660;2023-10-19T02:45:28;6.70;;;5.03;;
64651;SDS011;51062;45.120;37.660;2023-10-19T02:47:57;5.15;;;4.65;;
64651;SDS011;51062;45.120;37.660;2023-10-19T02:50:42;5.32;;;4.00;;
64651;SDS011;51062;45.120;37.660;2023-10-19T02:53:08;5.13;;;3.40;;
64651;SDS011;51062;45.120;37.660;2023-10-19T02:55:38;7.28;;;2.33;;
64651;SDS011;51062;45.120;37.660;2023-10-19T02:58:22;9.05;;;3.60;;
64651;SDS011;51062;45.120;37.660;2023-10-19T03:01:11;5.95;;;2.30;;
64651;SDS011;51062;45.120;37.660;2023-10-19T03:03:55;2.50;;;1.52;;
64651;SDS011;51062;45.120;37.660;2023-10-19T03:06:39;6.55;;;3.20;;
64651;SDS011;51062;45.120;37.660;2023-10-19T03:09:23;6.55;;;3.60;;
64651;SDS011;51062;45.120;37.660;2023-10-19T03:12:07;8.32;;;4.68;;
64651;SDS011;51062;45.120;37.660;2023-10-19T03:14:36;9.48;;;5.47;;
64651;SDS011;51062;45.120;37.660;2023-10-19T03:17:02;8.52;;;5.22;;
64651;SDS011;51062;45.120;37.660;2023-10-19T03:22:14;5.60;;;3.60;;
64651;SDS011;51062;45.120;37.660;2023-10-19T03:24:40;4.00;;;3.70;;
64651;SDS011;51062;45.120;37.660;2023-10-19T03:27:09;5.28;;;4.75;;
64651;SDS011;51062;45.120;37.660;2023-10-19T03:29:43;6.18;;;3.75;;
64651;SDS011;51062;45.120;37.660;2023-10-19T03:32:14;11.05;;;4.32;;
64651;SDS011;51062;45.120;37.660;2023-10-19T03:34:58;4.30;;;3.42;;
64651;SDS011;51062;45.120;37.660;2023-10-19T03:37:42;3.08;;;2.78;;
64651;SDS011;51062;45.120;37.660;2023-10-19T03:40:08;3.83;;;3.13;;
64651;SDS011;51062;45.120;37.660;2023-10-19T03:42:55;6.40;;;3.25;;
64651;SDS011;51062;45.120;37.660;2023-10-19T03:45:39;2.60;;;2.40;;
64651;SDS011;51062;45.120;37.660;2023-10-19T03:48:09;3.75;;;3.25;;
64651;SDS011;51062;45.120;37.660;2023-10-19T03:50:37;13.23;;;4.30;;
64651;SDS011;51062;45.120;37.660;2023-10-19T03:53:03;8.38;;;4.55;;
64651;SDS011;51062;45.120;37.660;2023-10-19T03:55:48;3.58;;;2.95;;
64651;SDS011;51062;45.120;37.660;2023-10-19T03:58:16;4.50;;;3.50;;
64651;SDS011;51062;45.120;37.660;2023-10-19T04:00:41;20.73;;;4.30;;
64651;SDS011;51062;45.120;37.660;2023-10-19T04:03:26;8.52;;;3.20;;
64651;SDS011;51062;45.120;37.660;2023-10-19T04:05:55;5.18;;;3.72;;
64651;SDS011;51062;45.120;37.660;2023-10-19T04:08:21;5.30;;;4.22;;
64651;SDS011;51062;45.120;37.660;2023-10-19T04:13:40;16.67;;;4.63;;
64651;SDS011;51062;45.120;37.660;2023-10-19T04:16:05;8.73;;;6.25;;
64651;SDS011;51062;45.120;37.660;2023-10-19T04:18:34;14.32;;;9.07;;
64651;SDS011;51062;45.120;37.660;2023-10-19T04:21:03;16.27;;;9.98;;
64651;SDS011;51062;45.120;37.660;2023-10-19T04:23:29;18.42;;;10.13;;
64651;SDS011;51062;45.120;37.660;2023-10-19T04:26:00;12.98;;;7.15;;
64651;SDS011;51062;45.120;37.660;2023-10-19T04:28:49;9.30;;;5.93;;
64651;SDS011;51062;45.120;37.660;2023-10-19T04:31:15;6.22;;;4.70;;
64651;SDS011;51062;45.120;37.660;2023-10-19T04:33:42;10.77;;;5.47;;
64651;SDS011;51062;45.120;37.660;2023-10-19T04:36:14;7.90;;;5.22;;
64651;SDS011;51062;45.120;37.660;2023-10-19T04:38:58;6.28;;;3.42;;
64651;SDS011;51062;45.120;37.660;2023-10-19T04:41:43;2.08;;;1.77;;
64651;SDS011;51062;45.120;37.660;2023-10-19T04:44:09;11.23;;;1.75;;
64651;SDS011;51062;45.120;37.660;2023-10-19T04:46:35;2.38;;;1.45;;
64651;SDS011;51062;45.120;37.660;2023-10-19T04:49:20;2.33;;;1.27;;
64651;SDS011;51062;45.120;37.660;2023-10-19T04:51:46;1.23;;;1.15;;
64651;SDS011;51062;45.120;37.660;2023-10-19T04:54:11;5.97;;;1.20;;
64651;SDS011;51062;45.120;37.660;2023-10-19T04:56:37;13.07;;;1.40;;
64651;SDS011;51062;45.120;37.660;2023-10-19T04:59:03;3.28;;;2.78;;
64651;SDS011;51062;45.120;37.660;2023-10-19T05:01:29;6.45;;;2.38;;
64651;SDS011;51062;45.120;37.660;2023-10-19T05:03:55;5.22;;;2.13;;
64651;SDS011;51062;45.120;37.660;2023-10-19T05:06:38;2.10;;;1.73;;
64651;SDS011;51062;45.120;37.660;2023-10-19T05:09:23;2.55;;;1.90;;
64651;SDS011;51062;45.120;37.660;2023-10-19T05:14:37;3.95;;;2.05;;
64651;SDS011;51062;45.120;37.660;2023-10-19T05:17:03;5.20;;;2.58;;
64651;SDS011;51062;45.120;37.660;2023-10-19T05:19:33;3.08;;;2.70;;
64651;SDS011;51062;45.120;37.660;2023-10-19T05:22:17;5.50;;;4.15;;
64651;SDS011;51062;45.120;37.660;2023-10-19T05:24:42;4.90;;;2.65;;
64651;SDS011;51062;45.120;37.660;2023-10-19T05:27:08;4.10;;;2.72;;
64651;SDS011;51062;45.120;37.660;2023-10-19T05:32:19;3.35;;;2.17;;
64651;SDS011;51062;45.120;37.660;2023-10-19T05:34:44;4.55;;;2.40;;
64651;SDS011;51062;45.120;37.660;2023-10-19T05:37:10;6.40;;;3.67;;
64651;SDS011;51062;45.120;37.660;2023-10-19T05:39:36;8.48;;;3.47;;
64651;SDS011;51062;45.120;37.660;2023-10-19T05:42:21;5.63;;;3.50;;
64651;SDS011;51062;45.120;37.660;2023-10-19T05:44:47;5.00;;;3.10;;
64651;SDS011;51062;45.120;37.660;2023-10-19T05:47:13;3.80;;;2.47;;
64651;SDS011;51062;45.120;37.660;2023-10-19T05:49:39;2.50;;;1.88;;
64651;SDS011;51062;45.120;37.660;2023-10-19T05:52:04;2.38;;;1.45;;
64651;SDS011;51062;45.120;37.660;2023-10-19T05:57:19;3.58;;;2.25;;
64651;SDS011;51062;45.120;37.660;2023-10-19T06:00:03;2.20;;;1.23;;
64651;SDS011;51062;45.120;37.660;2023-10-19T06:02:47;3.28;;;1.77;;
64651;SDS011;51062;45.120;37.660;2023-10-19T06:05:14;25.58;;;1.90;;
64651;SDS011;51062;45.120;37.660;2023-10-19T06:07:46;2.60;;;1.65;;
64651;SDS011;51062;45.120;37.660;2023-10-19T06:10:19;4.30;;;2.38;;
64651;SDS011;51062;45.120;37.660;2023-10-19T06:12:46;2.08;;;1.88;;
64651;SDS011;51062;45.120;37.660;2023-10-19T06:15:12;3.40;;;1.90;;
64651;SDS011;51062;45.120;37.660;2023-10-19T06:17:57;5.40;;;1.53;;
64651;SDS011;51062;45.120;37.660;2023-10-19T06:20:22;2.30;;;1.73;;
64651;SDS011;51062;45.120;37.660;2023-10-19T06:22:55;8.43;;;2.42;;
64651;SDS011;51062;45.120;37.660;2023-10-19T06:25:22;4.60;;;1.77;;
64651;SDS011;51062;45.120;37.660;2023-10-19T06:27:49;4.38;;;2.72;;
64651;SDS011;51062;45.120;37.660;2023-10-19T06:30:15;1.85;;;1.42;;
64651;SDS011;51062;45.120;37.660;2023-10-19T06:32:44;4.70;;;1.77;;
64651;SDS011;51062;45.120;37.660;2023-10-19T06:35:10;17.55;;;7.00;;
64651;SDS011;51062;45.120;37.660;2023-10-19T06:37:55;5.07;;;2.42;;
64651;SDS011;51062;45.120;37.660;2023-10-19T06:40:39;2.20;;;1.30;;
64651;SDS011;51062;45.120;37.660;2023-10-19T06:43:06;2.05;;;1.30;;
64651;SDS011;51062;45.120;37.660;2023-10-19T06:45:32;8.38;;;4.05;;
64651;SDS011;51062;45.120;37.660;2023-10-19T06:47:58;2.55;;;1.63;;
64651;SDS011;51062;45.120;37.660;2023-10-19T06:50:26;1.10;;;1.00;;
64651;SDS011;51062;45.120;37.660;2023-10-19T06:52:52;3.40;;;1.00;;
64651;SDS011;51062;45.120;37.660;2023-10-19T06:55:19;2.88;;;1.88;;
64651;SDS011;51062;45.120;37.660;2023-10-19T06:57:49;3.03;;;1.63;;
64651;SDS011;51062;45.120;37.660;2023-10-19T07:00:16;3.53;;;2.08;;
64651;SDS011;51062;45.120;37.660;2023-10-19T07:02:45;2.72;;;1.80;;
64651;SDS011;51062;45.120;37.660;2023-10-19T07:05:11;2.35;;;1.55;;
64651;SDS011;51062;45.120;37.660;2023-10-19T07:07:40;3.25;;;1.67;;
64651;SDS011;51062;45.120;37.660;2023-10-19T07:10:06;2.65;;;1.42;;
64651;SDS011;51062;45.120;37.660;2023-10-19T07:12:34;9.30;;;4.47;;
64651;SDS011;51062;45.120;37.660;2023-10-19T07:14:59;13.77;;;3.45;;
64651;SDS011;51062;45.120;37.660;2023-10-19T07:17:45;2.28;;;1.73;;
64651;SDS011;51062;45.120;37.660;2023-10-19T07:20:11;2.35;;;1.65;;
64651;SDS011;51062;45.120;37.660;2023-10-19T07:23:03;2.45;;;1.45;;
64651;SDS011;51062;45.120;37.660;2023-10-19T07:25:45;3.88;;;1.90;;
64651;SDS011;51062;45.120;37.660;2023-10-19T07:28:13;4.60;;;3.10;;
64651;SDS011;51062;45.120;37.660;2023-10-19T07:30:39;11.45;;;4.38;;
64651;SDS011;51062;45.120;37.660;2023-10-19T07:33:07;5.38;;;2.17;;
64651;SDS011;51062;45.120;37.660;2023-10-19T07:35:51;4.10;;;2.08;;
64651;SDS011;51062;45.120;37.660;2023-10-19T07:38:36;1.65;;;1.25;;
64651;SDS011;51062;45.120;37.660;2023-10-19T07:41:20;21.30;;;1.77;;
64651;SDS011;51062;45.120;37.660;2023-10-19T07:46:30;3.40;;;2.20;;
64651;SDS011;51062;45.120;37.660;2023-10-19T07:48:57;4.20;;;1.85;;
64651;SDS011;51062;45.120;37.660;2023-10-19T07:51:25;2.47;;;1.45;;
64651;SDS011;51062;45.120;37.660;2023-10-19T07:53:50;1.15;;;1.05;;
64651;SDS011;51062;45.120;37.660;2023-10-19T07:56:34;1.58;;;1.33;;
64651;SDS011;51062;45.120;37.660;2023-10-19T07:59:19;1.58;;;1.33;;
64651;SDS011;51062;45.120;37.660;2023-10-19T08:02:03;1.20;;;1.10;;
64651;SDS011;51062;45.120;37.660;2023-10-19T08:04:30;3.03;;;1.02;;
64651;SDS011;51062;45.120;37.660;2023-10-19T08:06:58;1.65;;;1.52;;
64651;SDS011;51062;45.120;37.660;2023-10-19T08:09:24;1.38;;;0.90;;
64651;SDS011;51062;45.120;37.660;2023-10-19T08:11:57;1.45;;;1.20;;
64651;SDS011;51062;45.120;37.660;2023-10-19T08:14:27;1.58;;;1.27;;
64651;SDS011;51062;45.120;37.660;2023-10-19T08:16:53;6.97;;;4.07;;
64651;SDS011;51062;45.120;37.660;2023-10-19T08:19:19;3.83;;;1.75;;
64651;SDS011;51062;45.120;37.660;2023-10-19T08:21:45;4.68;;;2.65;;
64651;SDS011;51062;45.120;37.660;2023-10-19T08:24:11;4.35;;;2.33;;
64651;SDS011;51062;45.120;37.660;2023-10-19T08:26:43;1.77;;;1.02;;
64651;SDS011;51062;45.120;37.660;2023-10-19T08:29:10;0.80;;;0.80;;
64651;SDS011;51062;45.120;37.660;2023-10-19T08:31:40;5.10;;;1.10;;
64651;SDS011;51062;45.120;37.660;2023-10-19T08:34:05;2.53;;;1.50;;
64651;SDS011;51062;45.120;37.660;2023-10-19T08:36:31;4.47;;;1.85;;
64651;SDS011;51062;45.120;37.660;2023-10-19T08:38:57;2.22;;;1.27;;
64651;SDS011;51062;45.120;37.660;2023-10-19T08:41:41;3.60;;;1.30;;
64651;SDS011;51062;45.120;37.660;2023-10-19T08:44:08;1.00;;;1.00;;
64651;SDS011;51062;45.120;37.660;2023-10-19T08:46:40;1.23;;;1.08;;
64651;SDS011;51062;45.120;37.660;2023-10-19T08:49:11;2.33;;;0.95;;
64651;SDS011;51062;45.120;37.660;2023-10-19T08:51:56;2.38;;;2.08;;
64651;SDS011;51062;45.120;37.660;2023-10-19T08:54:24;3.97;;;1.02;;
64651;SDS011;51062;45.120;37.660;2023-10-19T08:56:51;1.30;;;1.20;;
64651;SDS011;51062;45.120;37.660;2023-10-19T08:59:17;3.70;;;1.38;;
64651;SDS011;51062;45.120;37.660;2023-10-19T09:01:43;1.60;;;1.27;;
64651;SDS011;51062;45.120;37.660;2023-10-19T09:04:11;1.65;;;1.23;;
64651;SDS011;51062;45.120;37.660;2023-10-19T09:06:38;1.30;;;1.20;;
64651;SDS011;51062;45.120;37.660;2023-10-19T09:09:13;1.42;;;1.27;;
64651;SDS011;51062;45.120;37.660;2023-10-19T09:11:42;0.65;;;0.65;;
64651;SDS011;51062;45.120;37.660;2023-10-19T09:14:08;1.02;;;0.98;;
64651;SDS011;51062;45.120;37.660;2023-10-19T09:16:34;2.92;;;1.35;;
64651;SDS011;51062;45.120;37.660;2023-10-19T09:19:02;2.42;;;1.35;;
64651;SDS011;51062;45.120;37.660;2023-10-19T09:21:28;2.03;;;1.20;;
64651;SDS011;51062;45.120;37.660;2023-10-19T09:24:12;0.77;;;0.77;;
64651;SDS011;51062;45.120;37.660;2023-10-19T09:26:37;13.05;;;1.88;;
64651;SDS011;51062;45.120;37.660;2023-10-19T09:29:03;1.45;;;0.90;;
64651;SDS011;51062;45.120;37.660;2023-10-19T09:31:29;1.35;;;1.23;;
64651;SDS011;51062;45.120;37.660;2023-10-19T09:36:59;7.82;;;2.25;;
64651;SDS011;51062;45.120;37.660;2023-10-19T09:39:32;7.47;;;1.38;;
64651;SDS011;51062;45.120;37.660;2023-10-19T09:44:32;3.13;;;2.22;;
64651;SDS011;51062;45.120;37.660;2023-10-19T09:46:59;1.05;;;0.95;;
64651;SDS011;51062;45.120;37.660;2023-10-19T09:52:15;0.80;;;0.80;;
64651;SDS011;51062;45.120;37.660;2023-10-19T09:54:52;1.13;;;0.80;;
64651;SDS011;51062;45.120;37.660;2023-10-19T09:57:25;1.20;;;1.10;;
64651;SDS011;51062;45.120;37.660;2023-10-19T09:59:54;0.85;;;0.85;;
64651;SDS011;51062;45.120;37.660;2023-10-19T10:02:23;2.35;;;1.00;;
64651;SDS011;51062;45.120;37.660;2023-10-19T10:08:27;1.05;;;0.88;;
64651;SDS011;51062;45.120;37.660;2023-10-19T10:16:05;7.80;;;1.63;;
64651;SDS011;51062;45.120;37.660;2023-10-19T10:18:32;0.47;;;0.47;;
64651;SDS011;51062;45.120;37.660;2023-10-19T10:21:14;0.70;;;0.60;;
64651;SDS011;51062;45.120;37.660;2023-10-19T10:26:08;1.40;;;1.17;;
64651;SDS011;51062;45.120;37.660;2023-10-19T10:28:34;1.50;;;1.40;;
64651;SDS011;51062;45.120;37.660;2023-10-19T10:31:10;8.40;;;2.00;;
64651;SDS011;51062;45.120;37.660;2023-10-19T10:36:07;0.60;;;0.60;;
64651;SDS011;51062;45.120;37.660;2023-10-19T10:38:34;0.50;;;0.50;;
64651;SDS011;51062;45.120;37.660;2023-10-19T10:41:01;5.47;;;0.80;;
64651;SDS011;51062;45.120;37.660;2023-10-19T10:43:27;1.45;;;0.75;;
64651;SDS011;51062;45.120;37.660;2023-10-19T10:46:02;0.80;;;0.80;;
64651;SDS011;51062;45.120;37.660;2023-10-19T10:50:53;2.38;;;2.10;;
64651;SDS011;51062;45.120;37.660;2023-10-19T10:53:19;0.50;;;0.50;;
64651;SDS011;51062;45.120;37.660;2023-10-19T10:55:45;0.57;;;0.57;;
64651;SDS011;51062;45.120;37.660;2023-10-19T10:58:17;1.17;;;0.85;;
64651;SDS011;51062;45.120;37.660;2023-10-19T11:06:12;2.47;;;1.95;;
64651;SDS011;51062;45.120;37.660;2023-10-19T11:08:38;2.08;;;1.20;;
64651;SDS011;51062;45.120;37.660;2023-10-19T11:11:05;1.83;;;1.73;;
64651;SDS011;51062;45.120;37.660;2023-10-19T11:13:31;3.63;;;1.00;;
64651;SDS011;51062;45.120;37.660;2023-10-19T11:16:02;2.28;;;1.33;;
64651;SDS011;51062;45.120;37.660;2023-10-19T11:20:58;0.85;;;0.85;;
64651;SDS011;51062;45.120;37.660;2023-10-19T11:23:35;0.85;;;0.65;;
64651;SDS011;51062;45.120;37.660;2023-10-19T11:26:01;1.50;;;1.10;;
64651;SDS011;51062;45.120;37.660;2023-10-19T11:28:46;1.58;;;1.20;;
64651;SDS011;51062;45.120;37.660;2023-10-19T11:31:20;1.20;;;1.10;;
64651;SDS011;51062;45.120;37.660;2023-10-19T11:34:07;1.15;;;1.08;;
64651;SDS011;51062;45.120;37.660;2023-10-19T11:36:34;1.95;;;1.52;;
64651;SDS011;51062;45.120;37.660;2023-10-19T11:39:00;0.82;;;0.82;;
64651;SDS011;51062;45.120;37.660;2023-10-19T11:41:27;2.50;;;1.08;;
64651;SDS011;51062;45.120;37.660;2023-10-19T11:43:52;3.60;;;1.20;;
64651;SDS011;51062;45.120;37.660;2023-10-19T11:46:18;4.88;;;2.65;;
64651;SDS011;51062;45.120;37.660;2023-10-19T11:48:44;2.22;;;1.92;;
64651;SDS011;51062;45.120;37.660;2023-10-19T11:51:10;4.22;;;1.58;;
64651;SDS011;51062;45.120;37.660;2023-10-19T11:53:40;1.60;;;1.02;;
64651;SDS011;51062;45.120;37.660;2023-10-19T11:56:07;1.92;;;1.58;;
64651;SDS011;51062;45.120;37.660;2023-10-19T11:58:51;1.55;;;0.80;;
64651;SDS011;51062;45.120;37.660;2023-10-19T12:01:18;0.52;;;0.52;;
64651;SDS011;51062;45.120;37.660;2023-10-19T12:03:43;0.80;;;0.77;;
64651;SDS011;51062;45.120;37.660;2023-10-19T12:06:11;1.30;;;1.20;;
64651;SDS011;51062;45.120;37.660;2023-10-19T12:08:37;0.95;;;0.95;;
64651;SDS011;51062;45.120;37.660;2023-10-19T12:11:04;0.80;;;0.80;;
64651;SDS011;51062;45.120;37.660;2023-10-19T12:13:30;0.55;;;0.55;;
64651;SDS011;51062;45.120;37.660;2023-10-19T12:15:57;1.10;;;0.88;;
64651;SDS011;51062;45.120;37.660;2023-10-19T12:18:23;1.60;;;0.80;;
64651;SDS011;51062;45.120;37.660;2023-10-19T12:23:38;1.38;;;1.02;;
64651;SDS011;51062;45.120;37.660;2023-10-19T12:26:04;0.73;;;0.73;;
64651;SDS011;51062;45.120;37.660;2023-10-19T12:28:54;1.05;;;0.90;;
64651;SDS011;51062;45.120;37.660;2023-10-19T12:31:20;0.60;;;0.60;;
64651;SDS011;51062;45.120;37.660;2023-10-19T12:33:47;1.85;;;1.45;;
64651;SDS011;51062;45.120;37.660;2023-10-19T12:36:32;0.68;;;0.68;;
64651;SDS011;51062;45.120;37.660;2023-10-19T12:39:16;0.80;;;0.80;;
64651;SDS011;51062;45.120;37.660;2023-10-19T12:44:48;0.45;;;0.45;;
64651;SDS011;51062;45.120;37.660;2023-10-19T12:47:14;4.35;;;2.05;;
64651;SDS011;51062;45.120;37.660;2023-10-19T12:49:40;5.43;;;2.15;;
64651;SDS011;51062;45.120;37.660;2023-10-19T12:52:07;3.50;;;1.80;;
64651;SDS011;51062;45.120;37.660;2023-10-19T12:54:33;6.88;;;5.55;;
64651;SDS011;51062;45.120;37.660;2023-10-19T12:57:00;0.80;;;0.70;;
64651;SDS011;51062;45.120;37.660;2023-10-19T12:59:26;2.20;;;1.02;;
64651;SDS011;51062;45.120;37.660;2023-10-19T13:01:51;2.70;;;1.48;;
64651;SDS011;51062;45.120;37.660;2023-10-19T13:04:35;3.17;;;2.17;;
64651;SDS011;51062;45.120;37.660;2023-10-19T13:07:02;2.42;;;1.40;;
64651;SDS011;51062;45.120;37.660;2023-10-19T13:09:28;0.60;;;0.60;;
64651;SDS011;51062;45.120;37.660;2023-10-19T13:12:12;3.08;;;0.95;;
64651;SDS011;51062;45.120;37.660;2023-10-19T13:14:56;0.65;;;0.65;;
64651;SDS011;51062;45.120;37.660;2023-10-19T13:17:22;9.85;;;3.67;;
64651;SDS011;51062;45.120;37.660;2023-10-19T13:19:48;6.07;;;2.75;;
64651;SDS011;51062;45.120;37.660;2023-10-19T13:22:16;1.85;;;1.35;;
64651;SDS011;51062;45.120;37.660;2023-10-19T13:25:01;2.13;;;1.67;;
64651;SDS011;51062;45.120;37.660;2023-10-19T13:27:28;0.82;;;0.82;;
64651;SDS011;51062;45.120;37.660;2023-10-19T13:29:54;1.65;;;1.55;;
64651;SDS011;51062;45.120;37.660;2023-10-19T13:32:22;0.60;;;0.60;;
64651;SDS011;51062;45.120;37.660;2023-10-19T13:35:06;2.70;;;1.80;;
64651;SDS011;51062;45.120;37.660;2023-10-19T13:37:32;2.42;;;1.42;;
64651;SDS011;51062;45.120;37.660;2023-10-19T13:39:58;2.60;;;1.48;;
64651;SDS011;51062;45.120;37.660;2023-10-19T13:42:24;1.85;;;1.73;;
64651;SDS011;51062;45.120;37.660;2023-10-19T13:44:50;2.20;;;1.50;;
64651;SDS011;51062;45.120;37.660;2023-10-19T13:47:16;3.88;;;2.72;;
64651;SDS011;51062;45.120;37.660;2023-10-19T13:50:00;4.13;;;1.98;;
64651;SDS011;51062;45.120;37.660;2023-10-19T13:52:26;8.13;;;4.22;;
64651;SDS011;51062;45.120;37.660;2023-10-19T13:54:51;2.08;;;1.77;;
64651;SDS011;51062;45.120;37.660;2023-10-19T13:57:17;4.55;;;1.65;;
64651;SDS011;51062;45.120;37.660;2023-10-19T13:59:43;1.48;;;1.38;;
64651;SDS011;51062;45.120;37.660;2023-10-19T14:02:08;1.63;;;1.52;;
64651;SDS011;51062;45.120;37.660;2023-10-19T14:04:36;0.90;;;0.90;;
64651;SDS011;51062;45.120;37.660;2023-10-19T14:07:01;0.68;;;0.68;;
64651;SDS011;51062;45.120;37.660;2023-10-19T14:09:27;2.03;;;1.83;;
64651;SDS011;51062;45.120;37.660;2023-10-19T14:11:53;1.20;;;1.00;;
64651;SDS011;51062;45.120;37.660;2023-10-19T14:14:19;2.05;;;1.52;;
64651;SDS011;51062;45.120;37.660;2023-10-19T14:16:45;1.50;;;1.38;;
64651;SDS011;51062;45.120;37.660;2023-10-19T14:19:29;0.68;;;0.68;;
64651;SDS011;51062;45.120;37.660;2023-10-19T14:22:13;4.22;;;1.27;;
64651;SDS011;51062;45.120;37.660;2023-10-19T14:24:41;1.30;;;1.20;;
64651;SDS011;51062;45.120;37.660;2023-10-19T14:27:25;3.40;;;2.00;;
64651;SDS011;51062;45.120;37.660;2023-10-19T14:30:10;10.32;;;4.53;;
64651;SDS011;51062;45.120;37.660;2023-10-19T14:32:39;9.63;;;3.30;;
64651;SDS011;51062;45.120;37.660;2023-10-19T14:35:23;5.03;;;2.75;;
64651;SDS011;51062;45.120;37.660;2023-10-19T14:37:51;5.22;;;2.78;;
64651;SDS011;51062;45.120;37.660;2023-10-19T14:40:20;3.25;;;1.20;;
64651;SDS011;51062;45.120;37.660;2023-10-19T14:42:47;2.97;;;2.42;;
64651;SDS011;51062;45.120;37.660;2023-10-19T14:45:13;1.50;;;1.40;;
64651;SDS011;51062;45.120;37.660;2023-10-19T14:47:39;2.63;;;2.03;;
64651;SDS011;51062;45.120;37.660;2023-10-19T14:50:12;3.75;;;2.75;;
64651;SDS011;51062;45.120;37.660;2023-10-19T14:52:46;1.67;;;1.48;;
64651;SDS011;51062;45.120;37.660;2023-10-19T14:55:13;5.65;;;3.60;;
64651;SDS011;51062;45.120;37.660;2023-10-19T14:57:42;1.13;;;1.00;;
64651;SDS011;51062;45.120;37.660;2023-10-19T15:00:09;2.42;;;2.22;;
64651;SDS011;51062;45.120;37.660;2023-10-19T15:02:50;3.17;;;2.65;;
64651;SDS011;51062;45.120;37.660;2023-10-19T15:05:18;46.03;;;25.45;;
64651;SDS011;51062;45.120;37.660;2023-10-19T15:08:03;19.10;;;11.10;;
64651;SDS011;51062;45.120;37.660;2023-10-19T15:10:33;34.92;;;15.23;;
64651;SDS011;51062;45.120;37.660;2023-10-19T15:12:59;89.95;;;24.52;;
64651;SDS011;51062;45.120;37.660;2023-10-19T15:15:25;39.03;;;20.02;;
64651;SDS011;51062;45.120;37.660;2023-10-19T15:17:51;44.55;;;14.95;;
64651;SDS011;51062;45.120;37.660;2023-10-19T15:20:18;39.40;;;16.95;;
64651;SDS011;51062;45.120;37.660;2023-10-19T15:22:45;30.27;;;11.05;;
64651;SDS011;51062;45.120;37.660;2023-10-19T15:25:30;23.13;;;10.25;;
64651;SDS011;51062;45.120;37.660;2023-10-19T15:28:15;16.30;;;10.48;;
64651;SDS011;51062;45.120;37.660;2023-10-19T15:30:41;26.83;;;14.60;;
64651;SDS011;51062;45.120;37.660;2023-10-19T15:33:06;23.38;;;11.77;;
64651;SDS011;51062;45.120;37.660;2023-10-19T15:35:32;25.45;;;14.50;;
64651;SDS011;51062;45.120;37.660;2023-10-19T15:38:01;32.97;;;15.27;;
64651;SDS011;51062;45.120;37.660;2023-10-19T15:40:27;27.90;;;14.20;;
64651;SDS011;51062;45.120;37.660;2023-10-19T15:42:53;22.73;;;14.45;;
64651;SDS011;51062;45.120;37.660;2023-10-19T15:45:37;19.17;;;13.30;;
64651;SDS011;51062;45.120;37.660;2023-10-19T15:48:05;20.85;;;11.65;;
64651;SDS011;51062;45.120;37.660;2023-10-19T15:50:31;30.70;;;15.88;;
64651;SDS011;51062;45.120;37.660;2023-10-19T15:53:15;26.75;;;15.20;;
64651;SDS011;51062;45.120;37.660;2023-10-19T15:55:58;21.63;;;13.55;;
64651;SDS011;51062;45.120;37.660;2023-10-19T15:58:43;17.83;;;13.00;;
64651;SDS011;51062;45.120;37.660;2023-10-19T16:01:09;18.73;;;14.25;;
64651;SDS011;51062;45.120;37.660;2023-10-19T16:03:36;22.27;;;11.95;;
64651;SDS011;51062;45.120;37.660;2023-10-19T16:06:03;15.15;;;10.60;;
64651;SDS011;51062;45.120;37.660;2023-10-19T16:08:29;9.32;;;8.40;;
64651;SDS011;51062;45.120;37.660;2023-10-19T16:10:55;24.02;;;10.27;;
64651;SDS011;51062;45.120;37.660;2023-10-19T16:13:21;29.98;;;10.50;;
64651;SDS011;51062;45.120;37.660;2023-10-19T16:15:46;13.38;;;7.90;;
64651;SDS011;51062;45.120;37.660;2023-10-19T16:18:30;14.55;;;9.45;;